Wetterdaten: aktuell Freitag, 21.04.2017 19:00
Datum Zeit Temp. A. Temp. A. min Temp. A. max Feuchte A. Regen Wind Richtung Richtung Sonnenschein ET UV Solar Taupunkt Windchill Windben
21.04.2017 19:00 14.2 C 14.0 C 14.4 C 30 % 0.0 mm 3.2 km/h W 270 60 min 0.178 mm 0.0 UV-I 262 W/m -3.1 C 14.2 C 12.9 km/h
21.04.2017 18:00 14.6 C 13.9 C 15.2 C 29 % 0.0 mm 3.2 km/h S 180 60 min 0.254 mm 1.5 UV-I 432 W/m -3.2 C 14.6 C 11.3 km/h
21.04.2017 17:00 13.8 C 13.3 C 14.3 C 29 % 0.0 mm 3.2 km/h SO 135 60 min 0.330 mm 3.1 UV-I 585 W/m -3.9 C 13.8 C 16.1 km/h
21.04.2017 16:00 13.1 C 12.6 C 13.8 C 32 % 0.0 mm 4.8 km/h SO 135 60 min 0.381 mm 4.8 UV-I 701 W/m -3.2 C 13.1 C 17.7 km/h
21.04.2017 15:00 12.6 C 11.8 C 13.4 C 31 % 0.0 mm 3.2 km/h W-SW 247 60 min 0.406 mm 6.2 UV-I 780 W/m -4.1 C 12.6 C 14.5 km/h
21.04.2017 14:00 11.1 C 10.5 C 11.7 C 36 % 0.0 mm 3.2 km/h SO 135 60 min 0.406 mm 6.8 UV-I 807 W/m -3.4 C 11.1 C 14.5 km/h
21.04.2017 13:00 9.8 C 9.1 C 10.2 C 41 % 0.0 mm 4.8 km/h W-SW 247 60 min 0.381 mm 6.7 UV-I 798 W/m -2.8 C 9.8 C 19.3 km/h
21.04.2017 12:00 7.8 C 7.2 C 8.6 C 48 % 0.0 mm 4.8 km/h N-NO 22 60 min 0.330 mm 5.8 UV-I 754 W/m -2.5 C 7.8 C 20.9 km/h
21.04.2017 11:00 6.6 C 5.7 C 6.9 C 53 % 0.0 mm 3.2 km/h O-NO 67 60 min 0.254 mm 4.2 UV-I 670 W/m -2.3 C 6.6 C 14.5 km/h
21.04.2017 10:00 4.3 C 3.7 C 4.7 C 62 % 0.0 mm 1.6 km/h W-SW 247 60 min 0.178 mm 2.4 UV-I 517 W/m -2.3 C 4.3 C 8.0 km/h
21.04.2017 09:00 1.8 C 1.1 C 2.7 C 71 % 0.0 mm 0.0 km/h O-NO 67 60 min 0.102 mm 1.0 UV-I 357 W/m -2.9 C 1.8 C 4.8 km/h
21.04.2017 08:00 -1.1 C -1.3 C -0.7 C 83 % 0.0 mm 0.0 km/h O-NO 67 30 min 0.025 mm 0.0 UV-I 181 W/m -3.6 C -1.1 C 1.6 km/h
21.04.2017 07:00 -1.3 C -1.3 C -1.3 C 81 % 0.0 mm 0.0 km/h O-NO 67 0 min 0.000 mm 0.0 UV-I 19 W/m -4.1 C -1.3 C 1.6 km/h
21.04.2017 06:00 -1.2 C -1.3 C -0.9 C 81 % 0.0 mm 0.0 km/h O-NO 67 0 min 0.000 mm 0.0 UV-I 0 W/m -4.0 C -1.2 C 1.6 km/h
21.04.2017 05:00 -0.8 C -0.9 C -0.7 C 80 % 0.0 mm 0.0 km/h O-NO 67 0 min 0.000 mm 0.0 UV-I 0 W/m -3.8 C -0.8 C 1.6 km/h
21.04.2017 04:00 -0.4 C -0.5 C -0.3 C 76 % 0.0 mm 0.0 km/h O-NO 67 0 min 0.025 mm 0.0 UV-I 0 W/m -4.1 C -0.4 C 4.8 km/h
21.04.2017 03:00 0.3 C 0.0 C 0.6 C 76 % 0.0 mm 0.0 km/h O-NO 67 0 min 0.025 mm 0.0 UV-I 0 W/m -3.4 C 0.3 C 4.8 km/h
21.04.2017 02:00 1.6 C 1.1 C 2.2 C 66 % 0.0 mm 0.0 km/h O-NO 67 0 min 0.025 mm 0.0 UV-I 0 W/m -4.1 C 1.6 C 4.8 km/h
21.04.2017 01:00 2.1 C 1.8 C 2.2 C 62 % 0.0 mm 1.6 km/h NO 45 0 min 0.025 mm 0.0 UV-I 0 W/m -4.4 C 2.1 C 9.7 km/h
21.04.2017 00:00 3.1 C 2.8 C 3.3 C 58 % 0.0 mm 1.6 km/h NO 45 0 min 0.025 mm 0.0 UV-I 0 W/m -4.3 C 3.1 C 9.7 km/h
20.04.2017 23:00 3.3 C 2.9 C 3.7 C 58 % 0.0 mm 4.8 km/h NO 45 0 min 0.025 mm 0.0 UV-I 0 W/m -4.2 C 3.3 C 11.3 km/h
20.04.2017 22:00 4.4 C 4.2 C 4.5 C 51 % 0.0 mm 3.2 km/h O-NO 67 0 min 0.051 mm 0.0 UV-I 0 W/m -4.8 C 4.4 C 9.7 km/h
20.04.2017 21:00 5.1 C 4.9 C 5.4 C 48 % 0.0 mm 3.2 km/h O-NO 67 0 min 0.025 mm 0.0 UV-I 0 W/m -5.0 C 5.1 C 12.9 km/h
20.04.2017 20:00 6.6 C 6.3 C 6.8 C 45 % 0.0 mm 3.2 km/h O-NO 67 0 min 0.051 mm 0.0 UV-I 70 W/m -4.5 C 6.6 C 11.3 km/h
_ Min-Zeit 07:30 07:30 07:00 17:30 - 02:00 - - - - - - 21:30 07:00 04:30
Minimum _ -1.4 C -1.4 C -1.3 C 28 % - 0.0 km/h - - - - - - -5.1 C -1.3 C 0.0 km/h
_ Max-Zeit 18:00 17:30 18:00 08:00 20:00 23:30 - - 08:00 14:00 13:30 11:30 11:30 18:00 12:00
Maximum _ 15.2 C 14.1 C 15.2 C 83 % 0.0 mm 6.4 km/h
NO
- - 30 min 0.406 mm 6.8 UV-I 810 W/m -1.8 C 14.6 C 20.9 km/h
N
Durchschnitt _ 5.4 C 5.1 C 5.8 C 55 % #0.0 mm 2.5 km/h NO - #11:30 h #3.325 mm 4.3 UV-I 525 W/m -3.7 C 5.4 C 9.8 km/h